Bethel, CT (06801)

12:02 AM EDT on September 03, 2014 (GMT -0400)
Plumtrees | Change Station
CLOSE
Current Station
Personal Weather Station
Location: Bethel, CT
Elevation: 420 ft
Nearby Weather Stations

Elev 420 ft 41.39 °N, 73.39 °W | Updated 2 minutes ago

Partly Cloudy
Partly Cloudy
76.3 °F
Feels Like 78 °F
N
1.1
Wind Variable Wind from SW
Gusts 2.7 mph

Today
High -- | Low -- °F
--% Chance of Precip.
Yesterday
High -- | Low -- °F
Precip. -- in
6:21 AM 7:23 PM
First Quarter, 58% visible
Pressure 29.78 in
Visibility 10.0 miles
Clouds Few 6000 ft
Heat Index 78 °F
Dew Point 69 °F
Humidity 79%
Rainfall 0.00 in
Snow Depth Not available.
UV 0 out of 12
Pollen 6.90 out of 12
Ozone Good
PM2.5 Moderate
Flu Activity Not available.
METAR KDXR 030353Z AUTO 22008KT 10SM FEW060 27/19 A2979 RMK AO2 SLP082 T02670194

More Conditions Fewer Conditions

Pressure 29.78 in
Visibility 10.0 miles
Clouds Few 6000 ft
Heat Index 78 °F
Dew Point 69 °F
Humidity 79%
Rainfall 0.00 in
Snow Depth Not available.
UV 0 out of 12
Pollen 6.90 out of 12
Ozone Good
PM2.5 Moderate
Flu Activity Not available.
METAR KDXR 030353Z AUTO 22008KT 10SM FEW060 27/19 A2979 RMK AO2 SLP082 T02670194

More Conditions Fewer Conditions

10-Day Weather Forecast

Almanac

Astronomy

Sep. 03, 2014 Rise Set
Actual Time 6:21 AM EDT 7:23 PM EDT
Civil Twilight 5:53 AM EDT 7:51 PM EDT
Nautical Twilight 5:19 AM EDT 8:25 PM EDT
Astronomical Twilight 4:44 AM EDT 9:00 PM EDT
Moon 3:04 PM EDT 12:11 AM EDT
Length of Visible Light 13h 57m
Length of Day
13h 01m
Tomorrow will be 2m 39s shorter.
First Quarter, 58% of the Moon is Illuminated
Today
First Quarter
Sep 8
Full
Sep 15
Last Quarter
Sep 24
New
Oct 1
First Quarter

Yesterday's Extremes

State Highs State Lows

Community

WunderPhotos

Upload Photos

1,749,866 photos uploaded!

Nearby

Air Quality

  Air Quality AQ Index Pollutant
Yesterday Good
PM2.5
Yesterday Good
OZONE
Current Moderate
PM2.5
Current Good
OZONE
Tuesday Moderate
OZONE
Tuesday Moderate
PM2.5
Wednesday Good
OZONE
Wednesday Good
PM2.5

Snow Depth

Station Depth Elevation
No new snow has been reported.

Earthquake Activity

City Distance Mag. Time & Date
No recent earthquake activity has been reported nearby.
Minimum magnitude displayed is 2.5.

Coastal Water Temperatures

Place Temperature
Kings Point, NY 75.0 °F
Bridgeport, CT 78.1 °F

Nearby Weather Stations